sensor_id;sensor_type;location;lat;lon;timestamp;pressure;altitude;pressure_sealevel;temperature;humidity
3178;BME280;38141;42.666;23.344;2023-03-16T00:00:12;93785.00;;;3.51;100.00
3178;BME280;38141;42.666;23.344;2023-03-16T00:02:39;93791.22;;;3.59;100.00
3178;BME280;38141;42.666;23.344;2023-03-16T00:05:08;93801.31;;;3.43;100.00
3178;BME280;38141;42.666;23.344;2023-03-16T00:07:35;93799.41;;;3.43;100.00
3178;BME280;38141;42.666;23.344;2023-03-16T00:10:05;93780.94;;;3.35;100.00
3178;BME280;38141;42.666;23.344;2023-03-16T00:12:32;93779.31;;;3.27;100.00
3178;BME280;38141;42.666;23.344;2023-03-16T00:15:00;93802.72;;;3.37;100.00
3178;BME280;38141;42.666;23.344;2023-03-16T00:17:29;93806.06;;;3.30;100.00
3178;BME280;38141;42.666;23.344;2023-03-16T00:19:56;93803.03;;;3.32;100.00
3178;BME280;38141;42.666;23.344;2023-03-16T00:22:26;93809.09;;;3.29;100.00
3178;BME280;38141;42.666;23.344;2023-03-16T00:24:53;93816.88;;;3.37;100.00
3178;BME280;38141;42.666;23.344;2023-03-16T00:27:24;93813.31;;;3.30;100.00
3178;BME280;38141;42.666;23.344;2023-03-16T00:29:52;93810.34;;;3.35;100.00
3178;BME280;38141;42.666;23.344;2023-03-16T00:32:22;93803.09;;;3.35;100.00
3178;BME280;38141;42.666;23.344;2023-03-16T00:34:49;93810.84;;;3.18;100.00
3178;BME280;38141;42.666;23.344;2023-03-16T00:37:18;93800.75;;;3.07;100.00
3178;BME280;38141;42.666;23.344;2023-03-16T00:39:46;93814.16;;;3.11;100.00
3178;BME280;38141;42.666;23.344;2023-03-16T00:42:14;93825.47;;;3.04;100.00
3178;BME280;38141;42.666;23.344;2023-03-16T00:44:41;93830.19;;;3.11;100.00
3178;BME280;38141;42.666;23.344;2023-03-16T00:47:10;93832.38;;;3.05;100.00
3178;BME280;38141;42.666;23.344;2023-03-16T00:49:39;93823.47;;;2.98;100.00
3178;BME280;38141;42.666;23.344;2023-03-16T00:52:08;93824.72;;;3.04;100.00
3178;BME280;38141;42.666;23.344;2023-03-16T00:54:39;93830.22;;;3.14;100.00
3178;BME280;38141;42.666;23.344;2023-03-16T00:57:10;93827.94;;;3.13;100.00
3178;BME280;38141;42.666;23.344;2023-03-16T00:59:38;93825.97;;;3.10;100.00
3178;BME280;38141;42.666;23.344;2023-03-16T01:02:06;93835.03;;;3.05;100.00
3178;BME280;38141;42.666;23.344;2023-03-16T01:04:34;93824.78;;;3.07;100.00
3178;BME280;38141;42.666;23.344;2023-03-16T01:07:01;93825.38;;;2.97;100.00
3178;BME280;38141;42.666;23.344;2023-03-16T01:09:28;93821.69;;;3.05;100.00
3178;BME280;38141;42.666;23.344;2023-03-16T01:11:55;93827.31;;;3.00;100.00
3178;BME280;38141;42.666;23.344;2023-03-16T01:14:23;93827.38;;;2.81;100.00
3178;BME280;38141;42.666;23.344;2023-03-16T01:16:50;93812.41;;;2.77;100.00
3178;BME280;38141;42.666;23.344;2023-03-16T01:19:17;93834.00;;;2.91;100.00
3178;BME280;38141;42.666;23.344;2023-03-16T01:21:44;93825.59;;;2.89;100.00
3178;BME280;38141;42.666;23.344;2023-03-16T01:24:10;93821.59;;;2.79;100.00
3178;BME280;38141;42.666;23.344;2023-03-16T01:26:37;93829.28;;;2.81;100.00
3178;BME280;38141;42.666;23.344;2023-03-16T01:29:04;93829.28;;;2.81;100.00
3178;BME280;38141;42.666;23.344;2023-03-16T01:31:32;93830.16;;;2.88;100.00
3178;BME280;38141;42.666;23.344;2023-03-16T01:33:59;93836.31;;;2.69;100.00
3178;BME280;38141;42.666;23.344;2023-03-16T01:36:29;93827.47;;;2.65;100.00
3178;BME280;38141;42.666;23.344;2023-03-16T01:38:56;93833.63;;;2.69;100.00
3178;BME280;38141;42.666;23.344;2023-03-16T01:41:23;93844.88;;;2.79;100.00
3178;BME280;38141;42.666;23.344;2023-03-16T01:43:50;93833.97;;;2.68;100.00
3178;BME280;38141;42.666;23.344;2023-03-16T01:46:20;93838.97;;;2.69;100.00
3178;BME280;38141;42.666;23.344;2023-03-16T01:48:55;93847.75;;;2.70;100.00
3178;BME280;38141;42.666;23.344;2023-03-16T01:51:27;93852.25;;;2.66;100.00
3178;BME280;38141;42.666;23.344;2023-03-16T01:53:56;93850.63;;;2.81;100.00
3178;BME280;38141;42.666;23.344;2023-03-16T01:56:28;93853.88;;;2.71;100.00
3178;BME280;38141;42.666;23.344;2023-03-16T01:58:57;93839.13;;;2.57;100.00
3178;BME280;38141;42.666;23.344;2023-03-16T02:01:25;93847.84;;;2.54;100.00
3178;BME280;38141;42.666;23.344;2023-03-16T02:04:04;93860.56;;;2.61;100.00
3178;BME280;38141;42.666;23.344;2023-03-16T02:06:34;93860.84;;;2.56;100.00
3178;BME280;38141;42.666;23.344;2023-03-16T02:09:02;93872.72;;;2.58;100.00
3178;BME280;38141;42.666;23.344;2023-03-16T02:11:30;93871.56;;;2.59;100.00
3178;BME280;38141;42.666;23.344;2023-03-16T02:14:02;93869.63;;;2.56;100.00
3178;BME280;38141;42.666;23.344;2023-03-16T02:16:30;93867.84;;;2.64;100.00
3178;BME280;38141;42.666;23.344;2023-03-16T02:18:58;93877.69;;;2.60;100.00
3178;BME280;38141;42.666;23.344;2023-03-16T02:21:30;93883.09;;;2.63;100.00
3178;BME280;38141;42.666;23.344;2023-03-16T02:24:01;93882.97;;;2.56;100.00
3178;BME280;38141;42.666;23.344;2023-03-16T02:26:35;93886.84;;;2.59;100.00
3178;BME280;38141;42.666;23.344;2023-03-16T02:29:13;93891.06;;;2.41;100.00
3178;BME280;38141;42.666;23.344;2023-03-16T02:31:44;93891.47;;;2.43;100.00
3178;BME280;38141;42.666;23.344;2023-03-16T02:34:12;93894.47;;;2.41;100.00
3178;BME280;38141;42.666;23.344;2023-03-16T02:36:39;93908.38;;;2.31;100.00
3178;BME280;38141;42.666;23.344;2023-03-16T02:39:07;93908.00;;;2.33;100.00
3178;BME280;38141;42.666;23.344;2023-03-16T02:41:34;93895.88;;;2.35;100.00
3178;BME280;38141;42.666;23.344;2023-03-16T02:44:06;93898.63;;;2.39;100.00
3178;BME280;38141;42.666;23.344;2023-03-16T02:46:39;93897.53;;;2.24;100.00
3178;BME280;38141;42.666;23.344;2023-03-16T02:49:12;93894.22;;;2.11;100.00
3178;BME280;38141;42.666;23.344;2023-03-16T02:51:42;93910.53;;;2.26;100.00
3178;BME280;38141;42.666;23.344;2023-03-16T02:54:09;93900.22;;;2.24;100.00
3178;BME280;38141;42.666;23.344;2023-03-16T02:56:36;93909.63;;;2.18;100.00
3178;BME280;38141;42.666;23.344;2023-03-16T02:59:02;93908.75;;;2.14;100.00
3178;BME280;38141;42.666;23.344;2023-03-16T03:01:29;93913.81;;;2.19;100.00
3178;BME280;38141;42.666;23.344;2023-03-16T03:03:59;93906.31;;;2.24;100.00
3178;BME280;38141;42.666;23.344;2023-03-16T03:06:27;93916.00;;;2.13;100.00
3178;BME280;38141;42.666;23.344;2023-03-16T03:08:56;93917.19;;;2.16;100.00
3178;BME280;38141;42.666;23.344;2023-03-16T03:11:23;93902.53;;;2.26;100.00
3178;BME280;38141;42.666;23.344;2023-03-16T03:13:50;93913.84;;;2.38;100.00
3178;BME280;38141;42.666;23.344;2023-03-16T03:16:17;93925.97;;;2.16;100.00
3178;BME280;38141;42.666;23.344;2023-03-16T03:18:44;93936.63;;;2.16;100.00
3178;BME280;38141;42.666;23.344;2023-03-16T03:21:11;93933.13;;;2.12;100.00
3178;BME280;38141;42.666;23.344;2023-03-16T03:23:39;93918.75;;;2.01;100.00
3178;BME280;38141;42.666;23.344;2023-03-16T03:26:06;93930.97;;;2.02;100.00
3178;BME280;38141;42.666;23.344;2023-03-16T03:28:33;93934.75;;;2.01;100.00
3178;BME280;38141;42.666;23.344;2023-03-16T03:30:59;93930.88;;;2.14;100.00
3178;BME280;38141;42.666;23.344;2023-03-16T03:33:26;93940.09;;;2.17;100.00
3178;BME280;38141;42.666;23.344;2023-03-16T03:35:54;93944.56;;;2.13;100.00
3178;BME280;38141;42.666;23.344;2023-03-16T03:38:21;93943.88;;;2.16;100.00
3178;BME280;38141;42.666;23.344;2023-03-16T03:40:50;93923.34;;;1.85;100.00
3178;BME280;38141;42.666;23.344;2023-03-16T03:43:17;93953.69;;;1.96;100.00
3178;BME280;38141;42.666;23.344;2023-03-16T03:45:44;93960.91;;;1.96;100.00
3178;BME280;38141;42.666;23.344;2023-03-16T03:48:11;93947.34;;;1.85;100.00
3178;BME280;38141;42.666;23.344;2023-03-16T03:50:38;93962.38;;;1.93;100.00
3178;BME280;38141;42.666;23.344;2023-03-16T03:53:05;93965.66;;;2.02;100.00
3178;BME280;38141;42.666;23.344;2023-03-16T03:55:32;93946.50;;;1.81;100.00
3178;BME280;38141;42.666;23.344;2023-03-16T03:58:00;93977.78;;;1.84;100.00
3178;BME280;38141;42.666;23.344;2023-03-16T04:00:27;93955.00;;;1.71;100.00
3178;BME280;38141;42.666;23.344;2023-03-16T04:02:53;93991.28;;;1.91;100.00
3178;BME280;38141;42.666;23.344;2023-03-16T04:05:20;93981.38;;;1.92;100.00
3178;BME280;38141;42.666;23.344;2023-03-16T04:07:51;93985.81;;;2.00;100.00
3178;BME280;38141;42.666;23.344;2023-03-16T04:10:22;93974.25;;;1.96;100.00
3178;BME280;38141;42.666;23.344;2023-03-16T04:12:49;93978.84;;;1.95;100.00
3178;BME280;38141;42.666;23.344;2023-03-16T04:15:17;93983.81;;;1.97;100.00
3178;BME280;38141;42.666;23.344;2023-03-16T04:17:46;93985.09;;;2.03;100.00
3178;BME280;38141;42.666;23.344;2023-03-16T04:20:13;93991.72;;;2.09;100.00
3178;BME280;38141;42.666;23.344;2023-03-16T04:22:44;93980.72;;;1.95;100.00
3178;BME280;38141;42.666;23.344;2023-03-16T04:25:12;93980.19;;;2.05;100.00
3178;BME280;38141;42.666;23.344;2023-03-16T04:27:40;93966.78;;;1.70;100.00
3178;BME280;38141;42.666;23.344;2023-03-16T04:30:09;93992.16;;;1.95;100.00
3178;BME280;38141;42.666;23.344;2023-03-16T04:32:38;93978.97;;;1.87;100.00
3178;BME280;38141;42.666;23.344;2023-03-16T04:35:06;94001.81;;;2.00;100.00
3178;BME280;38141;42.666;23.344;2023-03-16T04:37:33;94007.13;;;2.00;100.00
3178;BME280;38141;42.666;23.344;2023-03-16T04:40:00;94016.00;;;2.04;100.00
3178;BME280;38141;42.666;23.344;2023-03-16T04:42:34;94012.72;;;1.95;100.00
3178;BME280;38141;42.666;23.344;2023-03-16T04:45:01;93970.72;;;1.60;100.00
3178;BME280;38141;42.666;23.344;2023-03-16T04:47:28;94018.56;;;2.00;100.00
3178;BME280;38141;42.666;23.344;2023-03-16T04:49:59;94013.38;;;1.92;100.00
3178;BME280;38141;42.666;23.344;2023-03-16T04:52:26;94011.09;;;1.90;100.00
3178;BME280;38141;42.666;23.344;2023-03-16T04:54:53;94029.13;;;1.97;100.00
3178;BME280;38141;42.666;23.344;2023-03-16T04:57:20;94031.81;;;1.97;100.00
3178;BME280;38141;42.666;23.344;2023-03-16T04:59:47;94038.09;;;1.89;100.00
3178;BME280;38141;42.666;23.344;2023-03-16T05:02:14;94028.63;;;1.91;100.00
3178;BME280;38141;42.666;23.344;2023-03-16T05:04:43;94049.69;;;1.96;100.00
3178;BME280;38141;42.666;23.344;2023-03-16T05:07:11;94041.78;;;1.84;100.00
3178;BME280;38141;42.666;23.344;2023-03-16T05:09:38;94052.44;;;1.84;100.00
3178;BME280;38141;42.666;23.344;2023-03-16T05:12:06;94046.16;;;1.92;100.00
3178;BME280;38141;42.666;23.344;2023-03-16T05:14:33;94057.03;;;1.99;100.00
3178;BME280;38141;42.666;23.344;2023-03-16T05:17:00;94044.72;;;1.95;100.00
3178;BME280;38141;42.666;23.344;2023-03-16T05:19:29;94049.94;;;1.91;100.00
3178;BME280;38141;42.666;23.344;2023-03-16T05:21:56;94030.50;;;1.75;100.00
3178;BME280;38141;42.666;23.344;2023-03-16T05:24:24;94058.72;;;1.92;100.00
3178;BME280;38141;42.666;23.344;2023-03-16T05:26:51;94034.91;;;1.83;100.00
3178;BME280;38141;42.666;23.344;2023-03-16T05:29:18;94054.88;;;1.89;100.00
3178;BME280;38141;42.666;23.344;2023-03-16T05:31:44;94056.59;;;1.97;100.00
3178;BME280;38141;42.666;23.344;2023-03-16T05:34:12;94061.63;;;1.87;100.00
3178;BME280;38141;42.666;23.344;2023-03-16T05:36:39;94076.28;;;1.93;100.00
3178;BME280;38141;42.666;23.344;2023-03-16T05:39:06;94068.72;;;1.95;100.00
3178;BME280;38141;42.666;23.344;2023-03-16T05:41:35;94073.72;;;2.12;100.00
3178;BME280;38141;42.666;23.344;2023-03-16T05:44:02;94076.97;;;2.05;100.00
3178;BME280;38141;42.666;23.344;2023-03-16T05:46:29;94080.59;;;1.97;100.00
3178;BME280;38141;42.666;23.344;2023-03-16T05:48:56;94073.63;;;1.93;100.00
3178;BME280;38141;42.666;23.344;2023-03-16T05:51:22;94086.78;;;2.01;100.00
3178;BME280;38141;42.666;23.344;2023-03-16T05:53:51;94072.25;;;1.99;100.00
3178;BME280;38141;42.666;23.344;2023-03-16T05:56:21;94092.47;;;2.00;100.00
3178;BME280;38141;42.666;23.344;2023-03-16T05:58:50;94099.50;;;1.92;100.00
3178;BME280;38141;42.666;23.344;2023-03-16T06:01:17;94100.81;;;1.98;100.00
3178;BME280;38141;42.666;23.344;2023-03-16T06:03:44;94081.44;;;1.86;100.00
3178;BME280;38141;42.666;23.344;2023-03-16T06:06:11;94082.22;;;1.86;100.00
3178;BME280;38141;42.666;23.344;2023-03-16T06:08:38;94098.06;;;1.95;100.00
3178;BME280;38141;42.666;23.344;2023-03-16T06:11:05;94117.22;;;2.00;100.00
3178;BME280;38141;42.666;23.344;2023-03-16T06:13:32;94111.84;;;2.12;100.00
3178;BME280;38141;42.666;23.344;2023-03-16T06:16:00;94096.50;;;1.94;100.00
3178;BME280;38141;42.666;23.344;2023-03-16T06:18:27;94117.34;;;2.19;100.00
3178;BME280;38141;42.666;23.344;2023-03-16T06:20:53;94117.97;;;2.29;100.00
3178;BME280;38141;42.666;23.344;2023-03-16T06:23:20;94128.28;;;2.30;100.00
3178;BME280;38141;42.666;23.344;2023-03-16T06:25:47;94131.75;;;2.31;100.00
3178;BME280;38141;42.666;23.344;2023-03-16T06:28:14;94136.38;;;2.34;100.00
3178;BME280;38141;42.666;23.344;2023-03-16T06:30:41;94123.75;;;2.31;100.00
3178;BME280;38141;42.666;23.344;2023-03-16T06:33:10;94045.63;;;1.87;100.00
3178;BME280;38141;42.666;23.344;2023-03-16T06:35:37;94093.41;;;2.07;100.00
3178;BME280;38141;42.666;23.344;2023-03-16T06:38:03;94151.63;;;2.64;100.00
3178;BME280;38141;42.666;23.344;2023-03-16T06:40:35;94082.06;;;2.26;100.00
3178;BME280;38141;42.666;23.344;2023-03-16T06:43:02;94038.88;;;1.89;100.00
3178;BME280;38141;42.666;23.344;2023-03-16T06:45:30;94139.66;;;2.58;100.00
3178;BME280;38141;42.666;23.344;2023-03-16T06:47:57;94166.00;;;2.76;100.00
3178;BME280;38141;42.666;23.344;2023-03-16T06:50:40;94124.06;;;2.60;100.00
3178;BME280;38141;42.666;23.344;2023-03-16T06:53:08;94115.22;;;2.41;100.00
3178;BME280;38141;42.666;23.344;2023-03-16T06:55:36;94059.34;;;1.85;100.00
3178;BME280;38141;42.666;23.344;2023-03-16T06:58:03;94122.69;;;2.35;100.00
3178;BME280;38141;42.666;23.344;2023-03-16T07:00:29;94050.72;;;1.76;100.00
3178;BME280;38141;42.666;23.344;2023-03-16T07:02:58;94086.69;;;1.98;100.00
3178;BME280;38141;42.666;23.344;2023-03-16T07:05:26;94146.88;;;2.42;100.00
3178;BME280;38141;42.666;23.344;2023-03-16T07:07:54;94101.69;;;2.18;100.00
3178;BME280;38141;42.666;23.344;2023-03-16T07:10:21;94116.91;;;2.33;100.00
3178;BME280;38141;42.666;23.344;2023-03-16T07:12:49;94182.38;;;2.74;100.00
3178;BME280;38141;42.666;23.344;2023-03-16T07:15:16;94094.16;;;1.92;100.00
3178;BME280;38141;42.666;23.344;2023-03-16T07:17:43;94195.91;;;2.81;100.00
3178;BME280;38141;42.666;23.344;2023-03-16T07:20:10;94200.38;;;2.93;100.00
3178;BME280;38141;42.666;23.344;2023-03-16T07:22:37;94205.09;;;3.15;100.00
3178;BME280;38141;42.666;23.344;2023-03-16T07:25:08;94172.56;;;2.94;100.00
3178;BME280;38141;42.666;23.344;2023-03-16T07:27:35;94197.09;;;2.84;100.00
3178;BME280;38141;42.666;23.344;2023-03-16T07:30:04;94215.38;;;2.97;100.00
3178;BME280;38141;42.666;23.344;2023-03-16T07:32:31;94187.47;;;2.95;100.00
3178;BME280;38141;42.666;23.344;2023-03-16T07:34:58;94189.13;;;3.34;100.00
3178;BME280;38141;42.666;23.344;2023-03-16T07:37:25;94213.75;;;3.43;100.00
3178;BME280;38141;42.666;23.344;2023-03-16T07:39:51;94220.13;;;3.04;100.00
3178;BME280;38141;42.666;23.344;2023-03-16T07:42:20;94226.13;;;3.17;100.00
3178;BME280;38141;42.666;23.344;2023-03-16T07:44:47;94221.47;;;3.13;100.00
3178;BME280;38141;42.666;23.344;2023-03-16T07:47:14;94224.56;;;3.31;100.00
3178;BME280;38141;42.666;23.344;2023-03-16T07:49:41;94201.38;;;3.35;100.00
3178;BME280;38141;42.666;23.344;2023-03-16T07:52:09;94204.88;;;3.39;100.00
3178;BME280;38141;42.666;23.344;2023-03-16T07:54:38;94219.72;;;3.72;100.00
3178;BME280;38141;42.666;23.344;2023-03-16T07:57:05;94223.31;;;3.79;100.00
3178;BME280;38141;42.666;23.344;2023-03-16T07:59:33;94233.81;;;3.88;100.00
3178;BME280;38141;42.666;23.344;2023-03-16T08:02:00;94214.44;;;3.75;100.00
3178;BME280;38141;42.666;23.344;2023-03-16T08:04:28;94229.84;;;3.82;100.00
3178;BME280;38141;42.666;23.344;2023-03-16T08:06:55;94231.09;;;3.69;100.00
3178;BME280;38141;42.666;23.344;2023-03-16T08:09:24;94239.22;;;3.72;100.00
3178;BME280;38141;42.666;23.344;2023-03-16T08:11:51;94231.69;;;3.97;100.00
3178;BME280;38141;42.666;23.344;2023-03-16T08:14:18;94233.75;;;3.84;100.00
3178;BME280;38141;42.666;23.344;2023-03-16T08:16:46;94245.72;;;3.90;100.00
3178;BME280;38141;42.666;23.344;2023-03-16T08:19:13;94247.69;;;3.93;100.00
3178;BME280;38141;42.666;23.344;2023-03-16T08:21:39;94244.84;;;3.86;100.00
3178;BME280;38141;42.666;23.344;2023-03-16T08:24:06;94256.69;;;3.85;100.00
3178;BME280;38141;42.666;23.344;2023-03-16T08:26:33;94237.50;;;3.99;100.00
3178;BME280;38141;42.666;23.344;2023-03-16T08:29:01;94231.41;;;3.83;100.00
3178;BME280;38141;42.666;23.344;2023-03-16T08:31:28;94260.28;;;3.93;100.00
3178;BME280;38141;42.666;23.344;2023-03-16T08:33:56;94253.53;;;3.99;100.00
3178;BME280;38141;42.666;23.344;2023-03-16T08:36:23;94262.94;;;4.09;100.00
3178;BME280;38141;42.666;23.344;2023-03-16T08:38:52;94264.53;;;3.94;100.00
3178;BME280;38141;42.666;23.344;2023-03-16T08:41:19;94218.00;;;4.18;100.00
3178;BME280;38141;42.666;23.344;2023-03-16T08:43:47;94232.69;;;4.27;100.00
3178;BME280;38141;42.666;23.344;2023-03-16T08:46:14;94263.56;;;4.40;100.00
3178;BME280;38141;42.666;23.344;2023-03-16T08:48:41;94271.50;;;4.37;100.00
3178;BME280;38141;42.666;23.344;2023-03-16T08:51:11;94265.25;;;4.48;100.00
3178;BME280;38141;42.666;23.344;2023-03-16T08:53:37;94249.69;;;4.35;100.00
3178;BME280;38141;42.666;23.344;2023-03-16T08:56:06;94278.47;;;4.41;100.00
3178;BME280;38141;42.666;23.344;2023-03-16T08:58:33;94283.63;;;4.31;100.00
3178;BME280;38141;42.666;23.344;2023-03-16T09:01:05;94285.53;;;4.30;100.00
3178;BME280;38141;42.666;23.344;2023-03-16T09:03:34;94253.53;;;4.37;100.00
3178;BME280;38141;42.666;23.344;2023-03-16T09:06:02;94278.63;;;4.48;100.00
3178;BME280;38141;42.666;23.344;2023-03-16T09:08:30;94261.94;;;4.36;100.00
3178;BME280;38141;42.666;23.344;2023-03-16T09:11:01;94294.31;;;4.50;100.00
3178;BME280;38141;42.666;23.344;2023-03-16T09:13:28;94274.47;;;4.32;100.00
3178;BME280;38141;42.666;23.344;2023-03-16T09:15:55;94266.78;;;4.11;100.00
3178;BME280;38141;42.666;23.344;2023-03-16T09:18:22;94266.00;;;4.11;100.00
3178;BME280;38141;42.666;23.344;2023-03-16T09:20:50;94268.84;;;4.18;100.00
3178;BME280;38141;42.666;23.344;2023-03-16T09:23:19;94305.25;;;4.41;100.00
3178;BME280;38141;42.666;23.344;2023-03-16T09:25:47;94299.00;;;4.34;100.00
3178;BME280;38141;42.666;23.344;2023-03-16T09:28:15;94295.81;;;4.47;100.00
3178;BME280;38141;42.666;23.344;2023-03-16T09:30:42;94280.88;;;4.66;100.00
3178;BME280;38141;42.666;23.344;2023-03-16T09:33:09;94299.69;;;4.69;100.00
3178;BME280;38141;42.666;23.344;2023-03-16T09:35:37;94289.13;;;4.38;100.00
3178;BME280;38141;42.666;23.344;2023-03-16T09:38:04;94275.88;;;4.26;100.00
3178;BME280;38141;42.666;23.344;2023-03-16T09:40:33;94291.09;;;4.22;100.00
3178;BME280;38141;42.666;23.344;2023-03-16T09:43:15;94302.56;;;4.41;100.00
3178;BME280;38141;42.666;23.344;2023-03-16T09:45:50;94281.00;;;4.15;100.00
3178;BME280;38141;42.666;23.344;2023-03-16T09:48:23;94306.44;;;4.25;100.00
3178;BME280;38141;42.666;23.344;2023-03-16T09:50:52;94303.06;;;4.28;100.00
3178;BME280;38141;42.666;23.344;2023-03-16T09:53:27;94303.72;;;4.21;100.00
3178;BME280;38141;42.666;23.344;2023-03-16T09:55:59;94305.75;;;4.09;100.00
3178;BME280;38141;42.666;23.344;2023-03-16T09:58:29;94313.19;;;4.19;100.00
3178;BME280;38141;42.666;23.344;2023-03-16T10:01:02;94299.88;;;4.03;100.00
3178;BME280;38141;42.666;23.344;2023-03-16T10:03:53;94314.25;;;4.14;100.00
3178;BME280;38141;42.666;23.344;2023-03-16T10:06:25;94298.94;;;3.95;100.00
3178;BME280;38141;42.666;23.344;2023-03-16T10:08:58;94291.94;;;4.07;100.00
3178;BME280;38141;42.666;23.344;2023-03-16T10:11:30;94308.56;;;4.16;100.00
3178;BME280;38141;42.666;23.344;2023-03-16T10:14:03;94311.63;;;3.98;100.00
3178;BME280;38141;42.666;23.344;2023-03-16T10:16:38;94311.72;;;4.02;100.00
3178;BME280;38141;42.666;23.344;2023-03-16T10:19:12;94315.75;;;4.12;100.00
3178;BME280;38141;42.666;23.344;2023-03-16T10:21:40;94300.72;;;4.07;100.00
3178;BME280;38141;42.666;23.344;2023-03-16T10:24:15;94304.25;;;4.11;100.00
3178;BME280;38141;42.666;23.344;2023-03-16T10:26:52;94314.13;;;4.26;100.00
3178;BME280;38141;42.666;23.344;2023-03-16T10:29:22;94309.25;;;4.13;100.00
3178;BME280;38141;42.666;23.344;2023-03-16T10:31:48;94310.13;;;4.36;100.00
3178;BME280;38141;42.666;23.344;2023-03-16T10:34:15;94303.06;;;4.28;100.00
3178;BME280;38141;42.666;23.344;2023-03-16T10:36:43;94283.34;;;4.17;100.00
3178;BME280;38141;42.666;23.344;2023-03-16T10:39:13;94298.75;;;4.23;100.00
3178;BME280;38141;42.666;23.344;2023-03-16T10:41:41;94294.00;;;4.13;100.00
3178;BME280;38141;42.666;23.344;2023-03-16T10:44:12;94303.44;;;4.26;100.00
3178;BME280;38141;42.666;23.344;2023-03-16T10:46:42;94279.75;;;4.28;100.00
3178;BME280;38141;42.666;23.344;2023-03-16T10:49:22;94303.00;;;4.24;100.00
3178;BME280;38141;42.666;23.344;2023-03-16T10:51:52;94304.50;;;4.22;100.00
3178;BME280;38141;42.666;23.344;2023-03-16T10:54:26;94315.75;;;4.31;100.00
3178;BME280;38141;42.666;23.344;2023-03-16T10:56:55;94315.84;;;4.34;100.00
3178;BME280;38141;42.666;23.344;2023-03-16T10:59:29;94306.31;;;4.56;100.00
3178;BME280;38141;42.666;23.344;2023-03-16T11:01:59;94308.38;;;4.43;100.00
3178;BME280;38141;42.666;23.344;2023-03-16T11:04:30;94313.16;;;4.54;100.00
3178;BME280;38141;42.666;23.344;2023-03-16T11:06:57;94312.09;;;4.39;100.00
3178;BME280;38141;42.666;23.344;2023-03-16T11:09:30;94319.34;;;4.58;100.00
3178;BME280;38141;42.666;23.344;2023-03-16T11:11:58;94324.94;;;4.49;100.00
3178;BME280;38141;42.666;23.344;2023-03-16T11:14:26;94315.56;;;4.59;100.00
3178;BME280;38141;42.666;23.344;2023-03-16T11:17:02;94316.03;;;4.83;100.00
3178;BME280;38141;42.666;23.344;2023-03-16T11:19:35;94315.19;;;4.79;100.00
3178;BME280;38141;42.666;23.344;2023-03-16T11:22:07;94284.53;;;4.77;100.00
3178;BME280;38141;42.666;23.344;2023-03-16T11:24:44;94297.25;;;4.83;100.00
3178;BME280;38141;42.666;23.344;2023-03-16T11:27:19;94316.03;;;4.64;100.00
3178;BME280;38141;42.666;23.344;2023-03-16T11:29:57;94314.13;;;4.45;100.00
3178;BME280;38141;42.666;23.344;2023-03-16T11:32:32;94322.31;;;4.53;100.00
3178;BME280;38141;42.666;23.344;2023-03-16T11:35:01;94308.88;;;4.49;100.00
3178;BME280;38141;42.666;23.344;2023-03-16T11:40:34;94298.72;;;4.58;100.00
3178;BME280;38141;42.666;23.344;2023-03-16T11:43:16;94301.78;;;4.60;100.00
3178;BME280;38141;42.666;23.344;2023-03-16T11:45:47;94324.00;;;4.61;100.00
3178;BME280;38141;42.666;23.344;2023-03-16T11:48:31;94311.66;;;4.75;100.00
3178;BME280;38141;42.666;23.344;2023-03-16T11:51:08;94312.16;;;4.62;100.00
3178;BME280;38141;42.666;23.344;2023-03-16T11:53:49;94317.53;;;4.62;100.00
3178;BME280;38141;42.666;23.344;2023-03-16T11:56:23;94318.25;;;4.59;100.00
3178;BME280;38141;42.666;23.344;2023-03-16T11:59:00;94315.13;;;4.76;100.00
3178;BME280;38141;42.666;23.344;2023-03-16T12:01:41;94322.44;;;4.60;100.00
3178;BME280;38141;42.666;23.344;2023-03-16T12:04:30;94295.81;;;4.28;100.00
3178;BME280;38141;42.666;23.344;2023-03-16T12:07:11;94311.88;;;4.28;100.00
3178;BME280;38141;42.666;23.344;2023-03-16T12:10:02;94322.81;;;4.39;100.00
3178;BME280;38141;42.666;23.344;2023-03-16T12:12:42;94337.38;;;4.41;100.00
3178;BME280;38141;42.666;23.344;2023-03-16T12:15:31;94328.50;;;4.37;100.00
3178;BME280;38141;42.666;23.344;2023-03-16T12:18:02;94342.16;;;4.32;100.00
3178;BME280;38141;42.666;23.344;2023-03-16T12:20:39;94335.91;;;4.44;100.00
3178;BME280;38141;42.666;23.344;2023-03-16T12:23:11;94339.94;;;4.34;100.00
3178;BME280;38141;42.666;23.344;2023-03-16T12:25:42;94334.56;;;4.34;100.00
3178;BME280;38141;42.666;23.344;2023-03-16T12:28:17;94341.81;;;4.34;100.00
3178;BME280;38141;42.666;23.344;2023-03-16T12:30:52;94340.41;;;4.21;100.00
3178;BME280;38141;42.666;23.344;2023-03-16T12:33:30;94347.22;;;4.18;100.00
3178;BME280;38141;42.666;23.344;2023-03-16T12:36:05;94340.84;;;4.42;100.00
3178;BME280;38141;42.666;23.344;2023-03-16T12:38:43;94222.81;;;3.39;100.00
3178;BME280;38141;42.666;23.344;2023-03-16T12:41:21;94315.81;;;4.15;100.00
3178;BME280;38141;42.666;23.344;2023-03-16T12:44:00;94317.78;;;3.99;100.00
3178;BME280;38141;42.666;23.344;2023-03-16T12:46:40;94363.75;;;4.04;100.00
3178;BME280;38141;42.666;23.344;2023-03-16T12:49:08;94370.38;;;4.11;100.00
3178;BME280;38141;42.666;23.344;2023-03-16T12:51:38;94370.13;;;4.00;100.00
3178;BME280;38141;42.666;23.344;2023-03-16T12:54:05;94366.34;;;4.01;100.00
3178;BME280;38141;42.666;23.344;2023-03-16T12:56:44;94354.00;;;3.96;100.00
3178;BME280;38141;42.666;23.344;2023-03-16T12:59:16;94363.00;;;4.04;100.00
3178;BME280;38141;42.666;23.344;2023-03-16T13:01:44;94365.44;;;3.78;100.00
3178;BME280;38141;42.666;23.344;2023-03-16T13:04:16;94374.16;;;3.59;100.00
3178;BME280;38141;42.666;23.344;2023-03-16T13:06:48;94373.72;;;3.57;100.00
3178;BME280;38141;42.666;23.344;2023-03-16T13:09:19;94362.00;;;3.30;100.00
3178;BME280;38141;42.666;23.344;2023-03-16T13:11:48;94387.28;;;3.48;100.00
3178;BME280;38141;42.666;23.344;2023-03-16T13:14:33;94380.28;;;3.59;100.00